createdAt,value
2022-07-29T00:05:00.907Z,18.06
2022-07-29T00:10:09.112Z,17.98
2022-07-29T00:15:14.403Z,17.93
2022-07-29T00:20:19.624Z,17.89
2022-07-29T00:25:27.388Z,17.84
2022-07-29T00:30:32.518Z,17.76
2022-07-29T00:35:49.649Z,17.73
2022-07-29T00:40:57.298Z,17.68
2022-07-29T00:46:02.560Z,17.65
2022-07-29T00:51:08.930Z,17.62
2022-07-29T00:56:16.847Z,17.61
2022-07-29T01:01:21.860Z,17.52
2022-07-29T01:06:28.719Z,17.48
2022-07-29T01:11:37.844Z,17.45
2022-07-29T01:16:54.790Z,17.42
2022-07-29T01:22:03.009Z,17.38
2022-07-29T01:27:29.342Z,17.35
2022-07-29T01:32:40.990Z,17.29
2022-07-29T01:37:50.988Z,17.21
2022-07-29T01:43:01.063Z,17.17
2022-07-29T01:48:15.792Z,17.12
2022-07-29T01:53:29.724Z,17.04
2022-07-29T01:58:45.821Z,16.95
2022-07-29T02:03:54.573Z,16.87
2022-07-29T02:09:00.423Z,16.76
2022-07-29T02:14:06.359Z,16.70
2022-07-29T02:19:15.570Z,16.68
2022-07-29T02:24:22.901Z,16.60
2022-07-29T02:29:30.286Z,16.53
2022-07-29T02:34:39.868Z,16.44
2022-07-29T02:39:47.931Z,16.32
2022-07-29T02:44:53.360Z,16.29
2022-07-29T02:50:06.328Z,16.25
2022-07-29T02:55:18.842Z,16.22
2022-07-29T03:00:25.643Z,16.14
2022-07-29T03:05:33.858Z,16.08
2022-07-29T03:10:41.334Z,16.02
2022-07-29T03:15:48.319Z,15.96
2022-07-29T03:20:56.073Z,15.87
2022-07-29T03:26:01.299Z,15.77
2022-07-29T03:31:06.686Z,15.72
2022-07-29T03:36:16.637Z,15.68
2022-07-29T03:41:24.012Z,15.64
2022-07-29T03:46:32.657Z,15.60
2022-07-29T03:51:40.636Z,15.56
2022-07-29T03:56:49.676Z,15.54
2022-07-29T04:01:55.701Z,15.52
2022-07-29T04:07:04.180Z,15.52
2022-07-29T04:12:10.271Z,15.48
2022-07-29T04:17:15.179Z,15.48
2022-07-29T04:22:23.022Z,15.45
2022-07-29T04:27:28.204Z,15.43
2022-07-29T04:32:33.639Z,15.42
2022-07-29T04:37:42.100Z,15.43
2022-07-29T04:42:47.924Z,15.40
2022-07-29T04:47:54.677Z,15.41
2022-07-29T04:53:02.450Z,15.40
2022-07-29T04:58:07.324Z,15.44
2022-07-29T05:03:12.722Z,15.53
2022-07-29T05:08:20.361Z,15.63
2022-07-29T05:13:25.341Z,15.72
2022-07-29T05:18:30.667Z,15.81
2022-07-29T05:23:38.492Z,15.89
2022-07-29T05:28:44.557Z,15.95
2022-07-29T05:33:50.486Z,16.02
2022-07-29T05:38:58.019Z,16.11
2022-07-29T05:44:03.551Z,16.16
2022-07-29T05:49:08.778Z,16.26
2022-07-29T05:54:16.787Z,16.39
2022-07-29T05:59:24.922Z,16.48
2022-07-29T06:04:32.578Z,16.60
2022-07-29T06:09:40.356Z,16.69
2022-07-29T06:14:45.767Z,16.75
2022-07-29T06:19:50.914Z,16.82
2022-07-29T06:24:59.212Z,16.90
2022-07-29T06:30:05.398Z,17.03
2022-07-29T06:35:37.906Z,17.16
2022-07-29T06:40:52.242Z,17.32
2022-07-29T06:45:57.883Z,17.49
2022-07-29T06:51:04.182Z,17.64
2022-07-29T06:56:13.916Z,17.84
2022-07-29T07:01:19.225Z,18.00
2022-07-29T07:06:24.351Z,18.16
2022-07-29T07:11:32.439Z,18.38
2022-07-29T07:16:37.604Z,18.52
2022-07-29T07:21:42.602Z,18.75
2022-07-29T07:26:50.810Z,19.01
2022-07-29T07:32:00.492Z,19.22
2022-07-29T07:37:06.708Z,19.48
2022-07-29T07:42:14.282Z,19.73
2022-07-29T07:47:21.441Z,19.94
2022-07-29T07:52:27.625Z,20.16
2022-07-29T07:57:36.120Z,20.36
2022-07-29T08:02:41.104Z,20.59
2022-07-29T08:07:46.093Z,20.75
2022-07-29T08:12:54.165Z,20.93
2022-07-29T08:17:59.103Z,21.19
2022-07-29T08:23:04.837Z,21.39
2022-07-29T08:28:12.823Z,21.53
2022-07-29T08:33:18.319Z,21.67
2022-07-29T08:38:23.162Z,21.78
2022-07-29T08:43:31.640Z,21.92
2022-07-29T08:48:37.762Z,22.04
2022-07-29T08:53:46.328Z,22.29
2022-07-29T08:58:54.700Z,22.52
2022-07-29T09:04:02.986Z,22.64
2022-07-29T09:09:08.303Z,22.84
2022-07-29T09:14:17.171Z,23.12
2022-07-29T09:19:27.192Z,23.50
2022-07-29T09:24:42.329Z,23.90
2022-07-29T09:29:50.173Z,24.08
2022-07-29T09:34:58.424Z,24.26
2022-07-29T09:40:14.858Z,24.45
2022-07-29T09:45:33.634Z,24.62
2022-07-29T09:50:43.230Z,24.71
2022-07-29T09:55:52.559Z,24.87
2022-07-29T10:01:01.265Z,25.15
2022-07-29T10:06:11.201Z,25.34
2022-07-29T10:11:20.937Z,25.60
2022-07-29T10:16:33.902Z,25.81
2022-07-29T10:21:40.909Z,26.17
2022-07-29T10:26:47.339Z,26.54
2022-07-29T10:32:11.453Z,26.97
2022-07-29T10:37:24.053Z,27.26
2022-07-29T10:42:34.251Z,27.34
2022-07-29T10:47:42.130Z,27.36
2022-07-29T10:52:58.639Z,27.38
2022-07-29T10:58:20.643Z,27.37
2022-07-29T11:03:52.466Z,27.27
2022-07-29T11:09:34.921Z,27.56
2022-07-29T11:15:00.395Z,27.74
2022-07-29T11:20:40.766Z,28.10
2022-07-29T11:25:52.265Z,28.23
2022-07-29T11:30:58.059Z,28.35
2022-07-29T11:36:16.929Z,28.36
2022-07-29T11:41:37.092Z,28.26
2022-07-29T11:46:50.933Z,28.30
2022-07-29T11:51:56.655Z,28.51
2022-07-29T11:57:05.620Z,28.75
2022-07-29T12:02:37.220Z,28.85
2022-07-29T12:07:37.924Z,29.06
2022-07-29T12:12:45.706Z,29.19
2022-07-29T12:17:53.824Z,29.02
2022-07-29T12:23:00.076Z,28.25
2022-07-29T12:28:09.523Z,28.41
2022-07-29T12:33:24.451Z,28.17
2022-07-29T12:38:29.599Z,28.03
2022-07-29T12:43:37.644Z,28.01
2022-07-29T12:48:44.427Z,27.86
2022-07-29T12:54:08.706Z,27.87
2022-07-29T12:59:21.571Z,27.92
2022-07-29T13:04:30.824Z,28.01
2022-07-29T13:09:43.067Z,28.14
2022-07-29T13:14:52.034Z,28.13
2022-07-29T13:20:10.400Z,28.12
2022-07-29T13:25:15.474Z,27.92
2022-07-29T13:30:23.083Z,27.84
2022-07-29T13:35:30.873Z,27.75
2022-07-29T13:40:36.825Z,27.59
2022-07-29T13:45:44.445Z,27.52
2022-07-29T13:50:49.557Z,27.42
2022-07-29T13:55:55.049Z,27.42
2022-07-29T14:01:03.516Z,27.01
2022-07-29T14:06:08.806Z,26.86
2022-07-29T14:11:13.736Z,26.87
2022-07-29T14:16:21.369Z,26.75
2022-07-29T14:21:26.398Z,26.81
2022-07-29T14:26:31.413Z,26.75
2022-07-29T14:31:40.190Z,26.77
2022-07-29T14:36:45.571Z,26.76
2022-07-29T14:41:50.524Z,26.74
2022-07-29T14:46:58.048Z,26.90
2022-07-29T14:52:03.104Z,27.20
2022-07-29T14:57:07.963Z,27.48
2022-07-29T15:02:15.510Z,27.65
2022-07-29T15:07:20.873Z,27.56
2022-07-29T15:12:25.899Z,27.56
2022-07-29T15:17:33.467Z,27.52
2022-07-29T15:22:39.224Z,27.66
2022-07-29T15:27:48.974Z,28.18
2022-07-29T15:33:00.531Z,28.79
2022-07-29T15:38:05.770Z,29.16
2022-07-29T15:43:11.053Z,29.68
2022-07-29T15:48:18.595Z,29.98
2022-07-29T15:53:23.585Z,30.16
2022-07-29T15:58:28.501Z,30.26
2022-07-29T16:03:36.294Z,30.26
2022-07-29T16:08:41.544Z,30.29
2022-07-29T16:13:46.486Z,30.36
2022-07-29T16:18:53.927Z,30.42
2022-07-29T16:23:59.184Z,30.60
2022-07-29T16:29:04.253Z,30.75
2022-07-29T16:34:13.742Z,30.68
2022-07-29T16:39:20.624Z,30.48
2022-07-29T16:44:27.519Z,30.28
2022-07-29T16:49:35.318Z,30.04
2022-07-29T16:54:41.219Z,29.76
2022-07-29T16:59:46.369Z,29.48
2022-07-29T17:04:54.106Z,29.22
2022-07-29T17:10:03.401Z,28.90
2022-07-29T17:15:11.731Z,28.63
2022-07-29T17:20:19.322Z,28.43
2022-07-29T17:25:24.900Z,28.12
2022-07-29T17:30:30.103Z,27.93
2022-07-29T17:35:50.154Z,27.77
2022-07-29T17:40:55.361Z,27.56
2022-07-29T17:46:00.391Z,27.43
2022-07-29T17:51:08.242Z,27.25
2022-07-29T17:56:17.164Z,27.07
2022-07-29T18:01:26.148Z,26.88
2022-07-29T18:06:33.968Z,26.67
2022-07-29T18:11:39.245Z,26.46
2022-07-29T18:16:49.662Z,26.25
2022-07-29T18:21:59.315Z,26.13
2022-07-29T18:27:10.296Z,25.99
2022-07-29T18:32:15.303Z,25.87
2022-07-29T18:38:01.346Z,25.73
2022-07-29T18:42:48.073Z,25.57
2022-07-29T18:47:53.128Z,25.47
2022-07-29T18:53:03.495Z,25.36
2022-07-29T18:58:08.544Z,25.22
2022-07-29T19:03:13.766Z,25.07
2022-07-29T19:08:21.666Z,24.94
2022-07-29T19:13:26.719Z,24.76
2022-07-29T19:18:31.880Z,24.59
2022-07-29T19:24:03.810Z,24.39
2022-07-29T19:29:05.224Z,24.24
2022-07-29T19:34:10.288Z,24.08
2022-07-29T19:39:18.279Z,23.94
2022-07-29T19:44:40.078Z,23.78
2022-07-29T19:49:45.176Z,23.57
2022-07-29T19:54:53.233Z,23.50
2022-07-29T19:59:58.260Z,23.43
2022-07-29T20:05:03.453Z,23.30
2022-07-29T20:10:13.122Z,23.13
2022-07-29T20:15:18.159Z,22.94
2022-07-29T20:20:23.872Z,22.78
2022-07-29T20:25:31.453Z,22.64
2022-07-29T20:30:38.537Z,22.48
2022-07-29T20:35:43.929Z,22.17
2022-07-29T20:40:53.210Z,21.85
2022-07-29T20:45:58.353Z,21.63
2022-07-29T20:51:03.356Z,21.47
2022-07-29T20:56:12.668Z,21.33
2022-07-29T21:01:17.933Z,21.25
2022-07-29T21:06:22.965Z,21.17
2022-07-29T21:11:44.726Z,21.08
2022-07-29T21:16:50.443Z,21.00
2022-07-29T21:21:55.605Z,20.86
2022-07-29T21:27:20.918Z,20.60
2022-07-29T21:32:29.660Z,20.28
2022-07-29T21:37:35.577Z,19.97
2022-07-29T21:42:43.911Z,19.76
2022-07-29T21:47:50.425Z,19.62
2022-07-29T21:52:56.004Z,19.39
2022-07-29T21:58:04.066Z,19.24
2022-07-29T22:03:09.047Z,19.17
2022-07-29T22:08:14.182Z,18.98
2022-07-29T22:13:22.056Z,18.96
2022-07-29T22:18:26.921Z,18.92
2022-07-29T22:23:32.702Z,18.86
2022-07-29T22:28:40.595Z,18.81
2022-07-29T22:33:47.729Z,18.75
2022-07-29T22:38:52.913Z,18.67
2022-07-29T22:44:00.699Z,18.62
2022-07-29T22:49:05.887Z,18.65
2022-07-29T22:54:10.975Z,18.59
2022-07-29T22:59:19.199Z,18.57
2022-07-29T23:04:24.280Z,18.54
2022-07-29T23:09:30.597Z,18.52
2022-07-29T23:14:38.301Z,18.51
2022-07-29T23:19:43.549Z,18.43
2022-07-29T23:24:50.623Z,18.33
2022-07-29T23:29:58.132Z,18.38
2022-07-29T23:35:05.496Z,18.39
2022-07-29T23:40:14.769Z,18.38
2022-07-29T23:45:22.553Z,18.42
2022-07-29T23:50:45.100Z,18.41
2022-07-29T23:55:50.700Z,18.23
